createdAt,value
2024-04-10T00:00:18.523Z,13.49
2024-04-10T00:01:18.317Z,13.53
2024-04-10T00:02:18.538Z,13.46
2024-04-10T00:03:20.487Z,13.47
2024-04-10T00:04:18.584Z,13.46
2024-04-10T00:05:19.014Z,13.46
2024-04-10T00:06:18.271Z,13.49
2024-04-10T00:07:18.270Z,13.44
2024-04-10T00:08:18.438Z,13.53
2024-04-10T00:09:18.286Z,13.41
2024-04-10T00:10:18.394Z,13.44
2024-04-10T00:11:18.489Z,13.46
2024-04-10T00:12:18.206Z,13.39
2024-04-10T00:13:18.293Z,13.39
2024-04-10T00:14:18.335Z,13.42
2024-04-10T00:15:18.324Z,13.47
2024-04-10T00:16:18.285Z,13.33
2024-04-10T00:17:18.440Z,13.35
2024-04-10T00:18:18.156Z,13.44
2024-04-10T00:19:18.338Z,13.38
2024-04-10T00:20:18.383Z,13.47
2024-04-10T00:21:18.253Z,13.44
2024-04-10T00:22:18.250Z,13.41
2024-04-10T00:23:18.373Z,13.39
2024-04-10T00:24:18.123Z,13.28
2024-04-10T00:25:18.142Z,13.37
2024-04-10T00:26:18.065Z,13.30
2024-04-10T00:27:18.001Z,13.22
2024-04-10T00:28:18.106Z,13.25
2024-04-10T00:29:18.120Z,13.27
2024-04-10T00:30:18.143Z,13.30
2024-04-10T00:31:18.091Z,13.16
2024-04-10T00:32:18.000Z,13.15
2024-04-10T00:33:18.047Z,13.13
2024-04-10T00:34:18.253Z,13.20
2024-04-10T00:35:18.121Z,13.19
2024-04-10T00:36:17.972Z,13.13
2024-04-10T00:37:17.934Z,13.11
2024-04-10T00:38:17.900Z,13.13
2024-04-10T00:39:18.075Z,13.05
2024-04-10T00:40:18.024Z,13.03
2024-04-10T00:41:18.078Z,13.03
2024-04-10T00:42:17.974Z,13.03
2024-04-10T00:43:17.822Z,13.01
2024-04-10T00:44:17.975Z,13.05
2024-04-10T00:45:17.954Z,13.00
2024-04-10T00:46:18.000Z,12.93
2024-04-10T00:47:17.983Z,12.90
2024-04-10T00:48:18.260Z,12.94
2024-04-10T00:49:17.849Z,12.94
2024-04-10T00:50:17.889Z,12.94
2024-04-10T00:51:17.719Z,12.94
2024-04-10T00:52:17.910Z,12.93
2024-04-10T00:53:17.741Z,12.85
2024-04-10T00:54:17.895Z,12.79
2024-04-10T00:55:17.826Z,12.80
2024-04-10T00:56:20.214Z,12.80
2024-04-10T00:57:17.749Z,12.80
2024-04-10T00:58:17.834Z,12.76
2024-04-10T00:59:17.907Z,12.79
2024-04-10T01:00:17.802Z,12.85
2024-04-10T01:01:17.861Z,12.86
2024-04-10T01:02:17.877Z,12.85
2024-04-10T01:03:17.789Z,12.76
2024-04-10T01:04:17.839Z,12.82
2024-04-10T01:05:17.833Z,12.75
2024-04-10T01:06:17.565Z,12.75
2024-04-10T01:07:17.667Z,12.76
2024-04-10T01:08:17.544Z,12.70
2024-04-10T01:09:17.537Z,12.78
2024-04-10T01:10:17.640Z,12.76
2024-04-10T01:11:17.671Z,12.62
2024-04-10T01:12:17.720Z,12.65
2024-04-10T01:13:18.044Z,12.60
2024-04-10T01:14:17.668Z,12.64
2024-04-10T01:15:17.592Z,12.61
2024-04-10T01:16:17.800Z,12.60
2024-04-10T01:17:17.759Z,12.62
2024-04-10T01:18:17.565Z,12.64
2024-04-10T01:19:17.590Z,12.61
2024-04-10T01:20:17.595Z,12.55
2024-04-10T01:21:17.374Z,12.55
2024-04-10T01:22:17.593Z,12.62
2024-04-10T01:23:17.504Z,12.58
2024-04-10T01:24:17.362Z,12.55
2024-04-10T01:25:17.634Z,12.55
2024-04-10T01:26:17.660Z,12.62
2024-04-10T01:27:17.337Z,12.50
2024-04-10T01:28:17.494Z,12.49
2024-04-10T01:29:17.479Z,12.47
2024-04-10T01:30:17.480Z,12.49
2024-04-10T01:31:17.427Z,12.46
2024-04-10T01:32:17.753Z,12.47
2024-04-10T01:33:17.629Z,12.43
2024-04-10T01:34:17.516Z,12.47
2024-04-10T01:35:17.361Z,12.40
2024-04-10T01:36:17.395Z,12.35
2024-04-10T01:37:17.290Z,12.29
2024-04-10T01:38:17.385Z,12.40
2024-04-10T01:39:17.336Z,12.37
2024-04-10T01:40:17.350Z,12.37
2024-04-10T01:41:17.317Z,12.31
2024-04-10T01:42:17.292Z,12.32
2024-04-10T01:43:17.137Z,12.25
2024-04-10T01:44:17.294Z,12.24
2024-04-10T01:45:17.225Z,12.29
2024-04-10T01:46:17.229Z,12.22
2024-04-10T01:47:17.254Z,12.18
2024-04-10T01:48:17.370Z,12.20
2024-04-10T01:49:17.271Z,12.22
2024-04-10T01:50:17.246Z,12.15
2024-04-10T01:51:17.222Z,12.18
2024-04-10T01:52:17.171Z,12.15
2024-04-10T01:53:17.041Z,12.12
2024-04-10T01:54:17.158Z,12.10
2024-04-10T01:55:17.144Z,12.10
2024-04-10T01:56:17.274Z,12.10
2024-04-10T01:57:17.088Z,12.06
2024-04-10T01:58:17.181Z,12.07
2024-04-10T01:59:17.016Z,12.07
2024-04-10T02:00:16.958Z,12.03
2024-04-10T02:01:17.155Z,12.02
2024-04-10T02:02:17.208Z,12.00
2024-04-10T02:03:17.270Z,11.99
2024-04-10T02:04:17.083Z,11.97
2024-04-10T02:05:17.076Z,11.91
2024-04-10T02:06:16.994Z,11.97
2024-04-10T02:07:16.847Z,11.95
2024-04-10T02:08:17.028Z,11.88
2024-04-10T02:09:16.965Z,11.88
2024-04-10T02:10:17.115Z,11.86
2024-04-10T02:11:17.112Z,11.88
2024-04-10T02:12:17.000Z,11.83
2024-04-10T02:13:16.935Z,11.88
2024-04-10T02:14:16.885Z,11.84
2024-04-10T02:15:16.808Z,11.87
2024-04-10T02:16:16.929Z,11.77
2024-04-10T02:17:17.021Z,11.81
2024-04-10T02:18:16.829Z,11.81
2024-04-10T02:19:16.931Z,11.78
2024-04-10T02:20:16.903Z,11.84
2024-04-10T02:21:16.832Z,11.73
2024-04-10T02:22:16.932Z,11.75
2024-04-10T02:23:16.934Z,11.78
2024-04-10T02:24:16.773Z,11.69
2024-04-10T02:25:16.807Z,11.78
2024-04-10T02:26:17.187Z,11.72
2024-04-10T02:27:16.747Z,11.68
2024-04-10T02:28:16.686Z,11.65
2024-04-10T02:29:16.688Z,11.68
2024-04-10T02:30:16.736Z,11.69
2024-04-10T02:31:16.677Z,11.66
2024-04-10T02:32:16.706Z,11.66
2024-04-10T02:33:16.721Z,11.69
2024-04-10T02:34:16.814Z,11.57
2024-04-10T02:35:16.758Z,11.70
2024-04-10T02:36:16.711Z,11.59
2024-04-10T02:37:16.588Z,11.57
2024-04-10T02:38:16.666Z,11.57
2024-04-10T02:39:16.650Z,11.63
2024-04-10T02:40:16.637Z,11.54
2024-04-10T02:41:16.679Z,11.51
2024-04-10T02:42:16.617Z,11.66
2024-04-10T02:43:16.630Z,11.55
2024-04-10T02:44:16.544Z,11.59
2024-04-10T02:45:16.567Z,11.63
2024-04-10T02:46:16.746Z,11.54
2024-04-10T02:47:16.508Z,11.59
2024-04-10T02:48:16.461Z,11.48
2024-04-10T02:49:16.462Z,11.50
2024-04-10T02:50:16.545Z,11.52
2024-04-10T02:51:16.618Z,11.50
2024-04-10T02:52:16.472Z,11.45
2024-04-10T02:53:16.522Z,11.52
2024-04-10T02:54:16.544Z,11.55
2024-04-10T02:55:16.475Z,11.44
2024-04-10T02:56:16.397Z,11.36
2024-04-10T02:57:16.384Z,11.52
2024-04-10T02:58:16.320Z,11.40
2024-04-10T02:59:16.476Z,11.45
2024-04-10T03:00:16.396Z,11.37
2024-04-10T03:01:16.355Z,11.37
2024-04-10T03:02:16.390Z,11.40
2024-04-10T03:03:16.549Z,11.43
2024-04-10T03:04:16.416Z,11.44
2024-04-10T03:05:16.333Z,11.37
2024-04-10T03:06:16.423Z,11.44
2024-04-10T03:07:16.302Z,11.33
2024-04-10T03:08:16.418Z,11.40
2024-04-10T03:09:16.327Z,11.47
2024-04-10T03:10:16.335Z,11.40
2024-04-10T03:11:16.311Z,11.44
2024-04-10T03:12:16.548Z,11.44
2024-04-10T03:13:16.201Z,11.41
2024-04-10T03:14:16.276Z,11.40
2024-04-10T03:15:16.171Z,11.37
2024-04-10T03:16:16.308Z,11.45
2024-04-10T03:17:16.151Z,11.40
2024-04-10T03:18:16.282Z,11.43
2024-04-10T03:19:16.201Z,11.36
2024-04-10T03:20:16.276Z,11.36
2024-04-10T03:21:16.185Z,11.41
2024-04-10T03:22:16.176Z,11.36
2024-04-10T03:23:16.155Z,11.36
2024-04-10T03:24:16.053Z,11.32
2024-04-10T03:25:16.175Z,11.36
2024-04-10T03:26:16.234Z,11.35
2024-04-10T03:27:16.163Z,11.40
2024-04-10T03:28:16.105Z,11.33
2024-04-10T03:29:15.979Z,11.32
2024-04-10T03:30:15.919Z,11.32
2024-04-10T03:31:15.903Z,11.27
2024-04-10T03:32:16.079Z,11.33
2024-04-10T03:33:16.158Z,11.36
2024-04-10T03:34:16.016Z,11.23
2024-04-10T03:35:16.075Z,11.25
2024-04-10T03:36:15.857Z,11.26
2024-04-10T03:37:15.837Z,11.27
2024-04-10T03:38:15.931Z,11.22
2024-04-10T03:39:15.933Z,11.17
2024-04-10T03:40:16.018Z,11.18
2024-04-10T03:41:16.007Z,11.18
2024-04-10T03:42:16.056Z,11.15
2024-04-10T03:43:15.932Z,11.18
2024-04-10T03:44:15.888Z,11.12
2024-04-10T03:45:15.922Z,11.07
2024-04-10T03:46:15.919Z,11.12
2024-04-10T03:47:15.833Z,11.14
2024-04-10T03:48:16.158Z,11.05
2024-04-10T03:49:15.746Z,11.10
2024-04-10T03:50:19.025Z,11.04
2024-04-10T03:51:15.874Z,10.97
2024-04-10T03:52:15.811Z,11.11
2024-04-10T03:53:15.969Z,11.10
2024-04-10T03:54:15.786Z,11.05
2024-04-10T03:55:15.753Z,11.07
2024-04-10T03:56:15.853Z,11.10
2024-04-10T03:57:15.781Z,11.02
2024-04-10T03:58:15.802Z,11.05
2024-04-10T03:59:15.815Z,11.08
2024-04-10T04:00:15.714Z,10.99
2024-04-10T04:01:15.914Z,10.99
2024-04-10T04:02:15.749Z,11.05
2024-04-10T04:03:15.853Z,11.10
2024-04-10T04:04:15.782Z,11.07
2024-04-10T04:05:15.557Z,11.07
2024-04-10T04:06:15.628Z,11.08
2024-04-10T04:07:15.562Z,10.97
2024-04-10T04:08:15.669Z,11.02
2024-04-10T04:09:15.639Z,11.08
2024-04-10T04:10:15.652Z,10.99
2024-04-10T04:11:15.638Z,11.10
2024-04-10T04:12:15.575Z,11.10
2024-04-10T04:13:15.526Z,11.10
2024-04-10T04:14:15.671Z,11.04
2024-04-10T04:15:15.409Z,11.10
2024-04-10T04:16:15.605Z,11.05
2024-04-10T04:17:15.557Z,11.10
2024-04-10T04:18:15.485Z,11.05
2024-04-10T04:19:15.581Z,11.07
2024-04-10T04:20:15.625Z,11.05
2024-04-10T04:21:15.461Z,11.04
2024-04-10T04:22:15.527Z,11.08
2024-04-10T04:23:15.604Z,11.08
2024-04-10T04:24:15.440Z,11.08
2024-04-10T04:25:15.477Z,11.08
2024-04-10T04:26:15.324Z,11.11
2024-04-10T04:27:15.587Z,11.08
2024-04-10T04:28:15.295Z,11.12
2024-04-10T04:29:15.310Z,11.08
2024-04-10T04:30:15.487Z,11.08
2024-04-10T04:31:15.399Z,11.07
2024-04-10T04:32:15.522Z,11.07
2024-04-10T04:33:15.828Z,11.10
2024-04-10T04:34:15.641Z,10.99
2024-04-10T04:35:15.230Z,11.12
2024-04-10T04:36:15.168Z,11.08
2024-04-10T04:37:15.342Z,11.14
2024-04-10T04:38:15.348Z,11.12
2024-04-10T04:39:15.315Z,11.11
2024-04-10T04:40:15.277Z,11.08
2024-04-10T04:41:15.157Z,11.14
2024-04-10T04:42:15.273Z,11.18
2024-04-10T04:43:16.693Z,11.22
2024-04-10T04:44:15.320Z,11.22
2024-04-10T04:45:15.232Z,11.17
2024-04-10T04:46:15.693Z,11.22
2024-04-10T04:47:15.280Z,11.29
2024-04-10T04:48:15.205Z,11.32
2024-04-10T04:49:15.106Z,11.29
2024-04-10T04:50:15.346Z,11.23
2024-04-10T04:51:15.011Z,11.30
2024-04-10T04:52:15.107Z,11.37
2024-04-10T04:53:15.225Z,11.43
2024-04-10T04:54:15.060Z,11.43
2024-04-10T04:55:15.100Z,11.44
2024-04-10T04:56:15.221Z,11.48
2024-04-10T04:57:15.013Z,11.50
2024-04-10T04:58:14.991Z,11.51
2024-04-10T04:59:15.024Z,11.47
2024-04-10T05:00:14.886Z,11.54
2024-04-10T05:01:15.078Z,11.52
2024-04-10T05:02:15.178Z,11.54
2024-04-10T05:03:15.096Z,11.54
2024-04-10T05:04:15.058Z,11.57
2024-04-10T05:05:14.905Z,11.68
2024-04-10T05:06:16.351Z,11.72
2024-04-10T05:07:14.971Z,11.77
2024-04-10T05:08:14.948Z,11.77
2024-04-10T05:09:14.864Z,11.84
2024-04-10T05:10:14.895Z,11.80
2024-04-10T05:11:14.993Z,11.81
2024-04-10T05:12:14.979Z,11.99
2024-04-10T05:13:14.900Z,11.97
2024-04-10T05:14:14.952Z,11.95
2024-04-10T05:15:14.835Z,12.02
2024-04-10T05:16:15.003Z,12.06
2024-04-10T05:17:14.813Z,12.04
2024-04-10T05:18:15.009Z,12.13
2024-04-10T05:19:24.038Z,12.13
2024-04-10T05:20:22.532Z,12.15
2024-04-10T05:23:38.508Z,12.31
2024-04-10T05:24:45.384Z,12.32
2024-04-10T05:26:53.657Z,12.28
2024-04-10T05:27:53.611Z,12.22
2024-04-10T05:28:53.678Z,12.28
2024-04-10T05:29:53.534Z,12.40
2024-04-10T05:30:53.596Z,12.47
2024-04-10T05:31:53.642Z,12.49
2024-04-10T05:32:54.064Z,12.55
2024-04-10T05:33:53.772Z,12.65
2024-04-10T05:34:53.458Z,12.68
2024-04-10T05:35:53.704Z,12.83
2024-04-10T05:36:53.464Z,12.85
2024-04-10T05:37:53.493Z,12.97
2024-04-10T05:38:53.499Z,12.98
2024-04-10T05:39:53.516Z,13.08
2024-04-10T05:40:53.520Z,13.19
2024-04-10T05:41:53.423Z,13.28
2024-04-10T05:42:53.535Z,13.33
2024-04-10T05:43:53.464Z,13.47
2024-04-10T05:46:25.020Z,13.59
2024-04-10T05:47:25.573Z,13.60
2024-04-10T05:48:25.263Z,13.65
2024-04-10T05:49:24.988Z,13.77
2024-04-10T05:50:25.329Z,13.72
2024-04-10T05:51:25.238Z,13.71
2024-04-10T05:52:25.034Z,13.86
2024-04-10T05:53:24.762Z,13.86
2024-04-10T05:54:24.701Z,13.92
2024-04-10T05:55:24.729Z,14.03
2024-04-10T05:56:24.817Z,14.04
2024-04-10T05:57:24.864Z,14.18
2024-04-10T05:58:24.744Z,14.28
2024-04-10T05:59:24.867Z,14.33
2024-04-10T06:00:24.704Z,14.35
2024-04-10T06:05:57.241Z,14.60
2024-04-10T06:06:57.157Z,14.62
2024-04-10T06:07:57.402Z,14.55
2024-04-10T06:08:57.752Z,14.63
2024-04-10T06:09:57.131Z,14.70
2024-04-10T06:11:16.914Z,14.78
2024-04-10T06:12:00.102Z,14.79
2024-04-10T06:17:05.575Z,15.03
2024-04-10T06:24:54.506Z,15.25
2024-04-10T06:27:40.821Z,15.33
2024-04-10T06:28:40.719Z,15.36
2024-04-10T06:29:40.667Z,15.39
2024-04-10T06:30:40.770Z,15.44
2024-04-10T06:31:40.669Z,15.59
2024-04-10T06:32:40.845Z,15.54
2024-04-10T06:33:41.447Z,15.75
2024-04-10T06:34:53.750Z,15.75
2024-04-10T06:35:40.680Z,15.77
2024-04-10T06:36:40.584Z,15.91
2024-04-10T06:37:40.661Z,15.91
2024-04-10T06:38:40.685Z,16.04
2024-04-10T06:41:07.538Z,16.21
2024-04-10T06:42:06.676Z,16.24
2024-04-10T06:43:08.388Z,16.33
2024-04-10T06:44:06.675Z,16.39
2024-04-10T06:46:36.412Z,16.50
2024-04-10T06:47:36.468Z,16.57
2024-04-10T06:48:34.021Z,16.57
2024-04-10T11:03:55.446Z,25.40
2024-04-10T11:09:07.814Z,25.51
2024-04-10T11:15:03.976Z,25.44
2024-04-10T11:25:55.378Z,25.32
2024-04-10T12:39:00.913Z,23.43
2024-04-10T12:43:36.613Z,23.66
2024-04-10T12:54:50.674Z,23.86
2024-04-10T13:11:17.946Z,23.10
2024-04-10T14:02:17.245Z,21.67
2024-04-10T14:11:48.521Z,21.58
2024-04-10T15:32:28.255Z,18.89
2024-04-10T15:49:51.225Z,18.47
2024-04-10T15:58:25.651Z,18.15
2024-04-10T15:59:25.656Z,18.00
2024-04-10T16:00:25.715Z,18.07
2024-04-10T16:01:25.659Z,18.13
2024-04-10T16:02:25.670Z,18.19
2024-04-10T16:03:25.941Z,18.15
2024-04-10T16:04:25.745Z,18.15
2024-04-10T16:05:25.713Z,18.16
2024-04-10T16:06:25.722Z,18.18
2024-04-10T16:07:25.532Z,18.20
2024-04-10T16:08:25.548Z,18.16
2024-04-10T16:09:25.594Z,18.19
2024-04-10T16:10:25.500Z,18.16
2024-04-10T16:11:25.703Z,18.01
2024-04-10T16:12:25.557Z,18.03
2024-04-10T16:13:25.477Z,18.04
2024-04-10T16:14:25.506Z,18.01
2024-04-10T16:15:25.429Z,17.92
2024-04-10T16:16:25.468Z,17.90
2024-04-10T16:17:25.498Z,17.98
2024-04-10T16:18:25.440Z,17.87
2024-04-10T16:19:25.502Z,17.87
2024-04-10T16:20:25.491Z,17.89
2024-04-10T16:21:25.409Z,17.83
2024-04-10T16:22:25.431Z,17.82
2024-04-10T16:23:25.422Z,17.80
2024-04-10T16:24:25.357Z,17.83
2024-04-10T16:25:25.350Z,17.78
2024-04-10T16:26:25.835Z,17.82
2024-04-10T16:27:25.293Z,17.80
2024-04-10T16:28:25.313Z,17.82
2024-04-10T16:29:25.355Z,17.80
2024-04-10T16:30:25.261Z,17.68
2024-04-10T16:31:25.255Z,17.74
2024-04-10T16:32:25.381Z,17.72
2024-04-10T16:33:25.436Z,17.71
2024-04-10T16:34:25.416Z,17.70
2024-04-10T16:35:25.226Z,17.68
2024-04-10T16:36:25.191Z,17.68
2024-04-10T16:37:25.198Z,17.67
2024-04-10T16:38:25.202Z,17.76
2024-04-10T16:39:25.191Z,17.70
2024-04-10T16:40:25.160Z,17.67
2024-04-10T16:41:25.182Z,17.76
2024-04-10T16:42:25.118Z,17.72
2024-04-10T16:43:25.108Z,17.70
2024-04-10T16:44:25.203Z,17.70
2024-04-10T16:45:25.084Z,17.72
2024-04-10T16:46:25.229Z,17.67
2024-04-10T16:47:25.113Z,17.67
2024-04-10T16:48:25.485Z,17.68
2024-04-10T16:49:25.066Z,17.67
2024-04-10T16:50:25.094Z,17.67
2024-04-10T16:51:25.018Z,17.51
2024-04-10T16:52:25.021Z,17.54
2024-04-10T16:53:25.069Z,17.54
2024-04-10T16:54:24.988Z,17.56
2024-04-10T16:55:24.985Z,17.52
2024-04-10T16:56:25.017Z,17.49
2024-04-10T16:57:25.014Z,17.57
2024-04-10T16:59:51.772Z,17.64
2024-04-10T17:00:51.726Z,17.44
2024-04-10T17:01:51.753Z,17.56
2024-04-10T17:02:51.741Z,17.52
2024-04-10T17:03:51.759Z,17.39
2024-04-10T17:04:51.688Z,17.51
2024-04-10T17:05:51.669Z,17.46
2024-04-10T17:06:51.618Z,17.44
2024-04-10T17:07:51.613Z,17.44
2024-04-10T17:08:51.698Z,17.48
2024-04-10T17:09:51.659Z,17.59
2024-04-10T17:10:51.648Z,17.51
2024-04-10T17:11:51.763Z,17.46
2024-04-10T17:12:51.550Z,17.51
2024-04-10T17:13:51.555Z,17.56
2024-04-10T17:14:51.620Z,17.59
2024-04-10T17:15:51.548Z,17.56
2024-04-10T17:16:51.611Z,17.59
2024-04-10T17:17:51.700Z,17.59
2024-04-10T17:18:51.563Z,17.52
2024-04-10T17:19:51.467Z,17.57
2024-04-10T17:20:51.516Z,17.59
2024-04-10T17:21:51.454Z,17.49
2024-04-10T17:22:51.434Z,17.54
2024-04-10T17:23:51.503Z,17.54
2024-04-10T17:24:51.429Z,17.52
2024-04-10T17:25:51.399Z,17.54
2024-04-10T17:26:51.452Z,17.57
2024-04-10T17:27:51.385Z,17.52
2024-04-10T17:28:52.812Z,17.56
2024-04-10T17:29:51.476Z,17.49
2024-04-10T17:30:51.408Z,17.56
2024-04-10T17:31:51.359Z,17.59
2024-04-10T17:32:51.472Z,17.57
2024-04-10T17:33:51.506Z,17.56
2024-04-10T17:34:51.394Z,17.57
2024-04-10T17:35:51.346Z,17.59
2024-04-10T17:36:51.278Z,17.60
2024-04-10T17:37:51.340Z,17.60
2024-04-10T17:38:51.350Z,17.54
2024-04-10T17:39:51.278Z,17.52
2024-04-10T17:40:51.337Z,17.56
2024-04-10T17:41:51.472Z,17.54
2024-04-10T17:42:51.219Z,17.59
2024-04-10T17:43:51.279Z,17.49
2024-04-10T17:44:51.270Z,17.59
2024-04-10T17:45:51.299Z,17.51
2024-04-10T17:46:51.314Z,17.59
2024-04-10T17:47:51.297Z,17.54
2024-04-10T17:48:51.225Z,17.54
2024-04-10T17:49:51.161Z,17.52
2024-04-10T17:50:51.181Z,17.52
2024-04-10T17:51:51.113Z,17.59
2024-04-10T17:52:51.099Z,17.54
2024-04-10T17:53:51.282Z,17.63
2024-04-10T17:54:51.095Z,17.52
2024-04-10T17:55:51.061Z,17.57
2024-04-10T17:56:51.183Z,17.57
2024-04-10T17:57:51.038Z,17.52
2024-04-10T17:58:51.047Z,17.51
2024-04-10T17:59:51.060Z,17.54
2024-04-10T18:00:51.021Z,17.51
2024-04-10T18:01:50.994Z,17.42
2024-04-10T18:02:51.034Z,17.45
2024-04-10T18:03:51.090Z,17.49
2024-04-10T18:04:51.007Z,17.41
2024-04-10T18:05:51.121Z,17.38
2024-04-10T18:06:50.952Z,17.39
2024-04-10T18:07:50.927Z,17.38
2024-04-10T18:08:50.980Z,17.44
2024-04-10T18:09:50.935Z,17.42
2024-04-10T18:10:50.923Z,17.38
2024-04-10T18:11:50.994Z,17.38
2024-04-10T18:12:50.901Z,17.34
2024-04-10T18:13:50.892Z,17.38
2024-04-10T18:14:50.927Z,17.29
2024-04-10T18:15:50.841Z,17.41
2024-04-10T18:16:50.839Z,17.24
2024-04-10T18:17:51.035Z,17.33
2024-04-10T18:18:51.096Z,17.29
2024-04-10T18:19:50.955Z,17.26
2024-04-10T18:20:50.832Z,17.29
2024-04-10T18:21:50.779Z,17.16
2024-04-10T18:22:50.760Z,17.22
2024-04-10T18:23:50.838Z,17.16
2024-04-10T18:24:50.747Z,17.19
2024-04-10T18:25:50.722Z,17.14
2024-04-10T18:26:50.734Z,17.15
2024-04-10T18:27:50.732Z,17.19
2024-04-10T18:28:50.731Z,17.15
2024-04-10T18:29:50.753Z,17.02
2024-04-10T18:30:50.680Z,17.09
2024-04-10T18:31:50.827Z,17.05
2024-04-10T18:32:50.797Z,17.05
2024-04-10T18:33:50.871Z,17.04
2024-04-10T18:34:50.741Z,17.02
2024-04-10T18:35:50.710Z,16.99
2024-04-10T18:36:50.659Z,16.97
2024-04-10T18:37:50.594Z,16.96
2024-04-10T18:38:50.612Z,16.93
2024-04-10T18:39:50.570Z,16.91
2024-04-10T18:40:50.725Z,16.93
2024-04-10T18:41:50.607Z,16.91
2024-04-10T18:42:50.539Z,16.83
2024-04-10T18:43:50.564Z,16.81
2024-04-10T18:44:50.582Z,16.86
2024-04-10T18:45:50.505Z,16.83
2024-04-10T18:46:50.493Z,16.89
2024-04-10T18:47:50.909Z,16.84
2024-04-10T18:48:50.633Z,16.79
2024-04-10T18:49:50.543Z,16.83
2024-04-10T18:50:50.494Z,16.83
2024-04-10T18:51:50.433Z,16.79
2024-04-10T18:52:50.424Z,16.72
2024-04-10T18:53:50.770Z,16.71
2024-04-10T18:54:50.398Z,16.75
2024-04-10T18:55:50.390Z,16.75
2024-04-10T18:56:50.450Z,16.71
2024-04-10T18:57:50.366Z,16.74
2024-04-10T18:58:50.368Z,16.71
2024-04-10T18:59:50.457Z,16.72
2024-04-10T19:00:50.406Z,16.72
2024-04-10T19:01:50.336Z,16.66
2024-04-10T19:02:50.677Z,16.64
2024-04-10T19:03:50.393Z,16.61
2024-04-10T19:04:50.335Z,16.69
2024-04-10T19:05:50.347Z,16.64
2024-04-10T19:06:50.804Z,16.68
2024-04-10T19:07:50.348Z,16.60
2024-04-10T19:08:50.322Z,16.56
2024-04-10T19:09:50.231Z,16.56
2024-04-10T19:10:50.267Z,16.58
2024-04-10T19:11:50.360Z,16.58
2024-04-10T19:12:52.249Z,16.68
2024-04-10T19:13:50.217Z,16.64
2024-04-10T19:14:50.303Z,16.60
2024-04-10T19:15:50.177Z,16.65
2024-04-10T19:16:50.214Z,16.57
2024-04-10T19:17:50.414Z,16.56
2024-04-10T19:18:50.214Z,16.53
2024-04-10T19:19:50.123Z,16.54
2024-04-10T19:20:50.271Z,16.54
2024-04-10T19:21:50.102Z,16.56
2024-04-10T19:22:50.086Z,16.54
2024-04-10T19:23:50.202Z,16.54
2024-04-10T19:24:50.078Z,16.50
2024-04-10T19:25:50.048Z,16.53
2024-04-10T19:26:50.158Z,16.53
2024-04-10T19:27:50.068Z,16.43
2024-04-10T19:28:50.017Z,16.41
2024-04-10T19:29:50.100Z,16.43
2024-04-10T19:30:50.032Z,16.41
2024-04-10T19:31:49.987Z,16.47
2024-04-10T19:32:50.136Z,16.38
2024-04-10T19:33:50.240Z,16.42
2024-04-10T19:34:50.180Z,16.35
2024-04-10T19:35:49.979Z,16.39
2024-04-10T19:36:49.941Z,16.42
2024-04-10T19:37:49.912Z,16.47
2024-04-10T19:38:49.956Z,16.39
2024-04-10T19:39:49.904Z,16.35
2024-04-10T19:40:49.924Z,16.35
2024-04-10T19:41:49.956Z,16.33
2024-04-10T19:42:49.861Z,16.33
2024-04-10T19:43:49.855Z,16.36
2024-04-10T19:44:49.884Z,16.29
2024-04-10T19:45:49.958Z,16.31
2024-04-10T19:46:49.812Z,16.16
2024-04-10T19:47:50.027Z,16.21
2024-04-10T19:48:50.050Z,16.26
2024-04-10T19:49:49.785Z,16.17
2024-04-10T19:50:49.813Z,16.28
2024-04-10T19:51:49.769Z,16.23
2024-04-10T19:52:49.746Z,16.24
2024-04-10T19:53:49.885Z,16.20
2024-04-10T19:54:49.743Z,16.15
2024-04-10T19:55:49.725Z,16.16
2024-04-10T19:56:49.762Z,16.16
2024-04-10T19:57:49.819Z,16.17
2024-04-10T19:58:49.687Z,16.20
2024-04-10T19:59:49.751Z,16.10
2024-04-10T20:00:49.697Z,16.10
2024-04-10T20:01:49.731Z,16.13
2024-04-10T20:02:49.966Z,16.09
2024-04-10T20:03:50.091Z,16.09
2024-04-10T20:04:49.705Z,16.09
2024-04-10T20:05:49.711Z,16.09
2024-04-10T20:06:49.632Z,16.08
2024-04-10T20:07:49.599Z,16.09
2024-04-10T20:08:49.607Z,16.08
2024-04-10T20:09:49.582Z,16.05
2024-04-10T20:10:49.631Z,15.95
2024-04-10T20:11:49.767Z,16.05
2024-04-10T20:12:49.520Z,16.00
2024-04-10T20:13:49.525Z,16.01
2024-04-10T20:14:49.619Z,16.01
2024-04-10T20:15:49.492Z,15.98
2024-04-10T20:16:49.479Z,16.01
2024-04-10T20:17:49.605Z,16.01
2024-04-10T20:18:49.682Z,15.92
2024-04-10T20:19:49.576Z,15.97
2024-04-10T20:20:49.477Z,15.86
2024-04-10T20:21:49.431Z,15.91
2024-04-10T20:22:49.412Z,15.90
2024-04-10T20:23:49.441Z,15.83
2024-04-10T20:24:49.416Z,15.84
2024-04-10T20:25:49.370Z,15.83
2024-04-10T20:26:49.385Z,15.86
2024-04-10T20:27:49.349Z,15.86
2024-04-10T20:28:49.408Z,15.84
2024-04-10T20:29:49.370Z,15.80
2024-04-10T20:30:49.319Z,15.77
2024-04-10T20:31:49.391Z,15.82
2024-04-10T20:32:49.487Z,15.77
2024-04-10T20:33:49.396Z,15.73
2024-04-10T20:34:49.284Z,15.76
2024-04-10T20:35:49.441Z,15.79
2024-04-10T20:36:49.269Z,15.70
2024-04-10T20:37:49.284Z,15.80
2024-04-10T20:38:49.276Z,15.65
2024-04-10T20:39:49.218Z,15.72
2024-04-10T20:40:49.202Z,15.72
2024-04-10T20:41:49.290Z,15.67
2024-04-10T20:42:49.192Z,15.64
2024-04-10T20:43:49.178Z,15.64
2024-04-10T20:44:49.239Z,15.64
2024-04-10T20:45:49.147Z,15.58
2024-04-10T20:46:49.140Z,15.59
2024-04-10T20:47:49.285Z,15.55
2024-04-10T20:48:50.013Z,15.57
2024-04-10T20:49:49.402Z,15.51
2024-04-10T20:50:49.133Z,15.51
2024-04-10T20:51:49.080Z,15.55
2024-04-10T20:52:49.159Z,15.54
2024-04-10T20:53:49.215Z,15.51
2024-04-10T20:54:49.053Z,15.52
2024-04-10T20:55:49.060Z,15.49
2024-04-10T20:56:49.067Z,15.47
2024-04-10T20:57:49.030Z,15.47
2024-04-10T20:58:49.011Z,15.51
2024-04-10T20:59:49.111Z,15.49
2024-04-10T21:00:49.004Z,15.47
2024-04-10T21:01:52.812Z,15.40
2024-04-10T21:02:49.163Z,15.36
2024-04-10T21:03:49.354Z,15.42
2024-04-10T21:04:49.018Z,15.37
2024-04-10T21:05:49.024Z,15.37
2024-04-10T21:06:48.909Z,15.37
2024-04-10T21:07:48.896Z,15.35
2024-04-10T21:08:49.381Z,15.31
2024-04-10T21:09:48.906Z,15.27
2024-04-10T21:10:48.909Z,15.19
2024-04-10T21:11:49.003Z,15.31
2024-04-10T21:12:48.854Z,15.29
2024-04-10T21:13:48.833Z,15.28
2024-04-10T21:14:48.909Z,15.28
2024-04-10T21:15:49.712Z,15.27
2024-04-10T21:16:48.832Z,15.27
2024-04-10T21:17:49.129Z,15.24
2024-04-10T21:18:49.004Z,15.17
2024-04-10T21:19:48.831Z,15.10
2024-04-10T21:20:48.814Z,15.22
2024-04-10T21:21:48.742Z,15.14
2024-04-10T21:22:48.752Z,15.11
2024-04-10T21:23:48.809Z,15.09
2024-04-10T21:24:48.736Z,15.09
2024-04-10T21:25:49.232Z,15.10
2024-04-10T21:26:48.731Z,15.07
2024-04-10T21:27:48.679Z,15.03
2024-04-10T21:28:48.673Z,15.06
2024-04-10T21:29:48.940Z,15.04
2024-04-10T21:30:48.639Z,15.00
2024-04-10T21:31:48.678Z,15.03
2024-04-10T21:32:48.841Z,14.94
2024-04-10T21:33:48.947Z,14.99
2024-04-10T21:34:48.593Z,14.89
2024-04-10T21:35:48.738Z,14.96
2024-04-10T21:36:48.572Z,14.92
2024-04-10T21:37:48.558Z,14.88
2024-04-10T21:38:48.615Z,14.97
2024-04-10T21:39:48.627Z,14.96
2024-04-10T21:40:48.549Z,14.99
2024-04-10T21:41:48.641Z,14.91
2024-04-10T21:42:48.518Z,14.94
2024-04-10T21:43:48.492Z,14.88
2024-04-10T21:44:48.798Z,14.94
2024-04-10T21:45:48.513Z,14.89
2024-04-10T21:46:48.504Z,14.88
2024-04-10T21:47:48.979Z,14.85
2024-04-10T21:48:48.759Z,14.92
2024-04-10T21:49:48.717Z,14.94
2024-04-10T21:50:48.535Z,14.91
2024-04-10T21:51:48.477Z,14.85
2024-04-10T21:52:48.489Z,14.89
2024-04-10T21:53:48.506Z,14.86
2024-04-10T21:54:48.526Z,14.86
2024-04-10T21:55:48.413Z,14.81
2024-04-10T21:56:48.436Z,14.86
2024-04-10T21:57:48.358Z,14.82
2024-04-10T21:58:48.437Z,14.79
2024-04-10T22:00:58.832Z,14.77
2024-04-10T22:02:56.743Z,14.81
2024-04-10T22:03:56.802Z,14.78
2024-04-10T22:04:57.879Z,14.73
2024-04-10T22:05:57.849Z,14.73
2024-04-10T22:06:56.666Z,14.77
2024-04-10T22:07:56.645Z,14.81
2024-04-10T22:08:56.555Z,14.77
2024-04-10T22:09:56.516Z,14.72
2024-04-10T22:10:56.463Z,14.73
2024-04-10T22:11:56.564Z,14.63
2024-04-10T22:12:56.577Z,14.70
2024-04-10T22:13:56.391Z,14.62
2024-04-10T22:14:56.573Z,14.66
2024-04-10T22:15:56.379Z,14.63
2024-04-10T22:16:56.362Z,14.66
2024-04-10T22:17:56.497Z,14.70